Du har inga inställningar för hoppväder.nu

Hoppväder.nu

Senast uppdaterat 13:30

UTC-tid

2021-12-07 kl. 12:30


Sol och måne

Solen går upp 9:05 och går ner 14:19 (beräknade cirkatider)
Nästa fullmåne blir om 12 dagar (2021-12-19)

METAR

ESNN (Sundsvall)
(10 minuter sedan)
ESNN 071220Z AUTO 31004KT 1800 -SN VV031 M07/M08 Q1018=



ESNK (Kramfors)
(10 minuter sedan)
ESNK 071220Z 35005KT 9999 OVC013 M15/M17 Q1018=



ESNO (Örnsköldsvik)
(10 minuter sedan)
ESNO 071220Z AUTO 36004KT 9999 NCD M13/M14 Q1017=



ESNY (Söderhamn)
ESNY NIL=



ESNZ (Östersund)
(10 minuter sedan)
ESNZ 071220Z 12015KT 9999 BKN039 M12/M14 Q1011=



TAF

ESNN (Sundsvall)
(420 minuter sedan)
ESNN 070530Z 0706/0710 31006KT 6000 -SN SCT008 BKN030 PROB40 0706/0710 1200 SN VV008=



ESNK (Kramfors)
(60 minuter sedan)
ESNK 071130Z 0712/0718 VRB02KT 9999 BKN040 PROB40 0712/0718 2500 -SN OVC004=



ESNO (Örnsköldsvik)
(420 minuter sedan)
ESNO 070530Z 0706/0710 02005KT 9999 BKN020 TEMPO 0706/0710 2000 -SN OVC003=



ESNY (Söderhamn)
ESNY



ESNZ (Östersund)
(240 minuter sedan)
ESNZ 070830Z 0709/0711 13011KT 9999 BKN030=





Kodnycklar till TAF och METAR






LHP

(Sundsvall är område se42d i Delområde 4)







Spotting

Hur fungerar spotthjälpen och Vindkartan?

Markvind är ca 0 m/s.



Vindkartan

Senast uppdaterad 13:30




All data kommer från LFV.se